Time;durP1;ratioP1;P1;durP2;ratioP2;P2;SDS_P1;SDS_P2;PMS_P1;PMS_P2;Temp;Humidity;BMP_temperature;BMP_pressure;BME280_temperature;BME280_humidity;BME280_pressure;Samples;Min_cycle;Max_cycle;Signal;HPM_P1;HPM_P2
2022/03/15 00:00:37;;;;;;;7.73;6.93;;;-0.20;92.00;0.00;98268.00;;;;5071418;28;21163;-66
2022/03/15 00:03:26;;;;;;;9.63;8.23;;;-0.20;91.90;-0.20;98251.00;;;;5070135;28;20906;-66
2022/03/15 00:06:14;;;;;;;13.60;8.87;;;-0.20;91.90;-0.30;98256.00;;;;5071254;28;20941;-66
2022/03/15 00:09:03;;;;;;;11.13;8.83;;;-0.20;92.00;-0.10;98272.00;;;;5069845;28;20458;-66
2022/03/15 00:11:54;;;;;;;10.43;8.57;;;-0.30;91.90;0.10;98246.00;;;;5070851;28;20462;-66
2022/03/15 00:14:44;;;;;;;14.13;9.07;;;-0.30;91.90;0.10;98257.00;;;;5070617;28;20427;-66
2022/03/15 00:17:33;;;;;;;11.30;8.40;;;-0.40;92.00;-0.10;98261.00;;;;5070212;28;20453;-66
2022/03/15 00:20:23;;;;;;;9.57;7.70;;;-0.30;92.30;-0.60;98244.00;;;;5063747;28;20444;-67
2022/03/15 00:23:12;;;;;;;11.10;7.97;;;-0.40;92.50;-1.20;98233.00;;;;5059716;28;20419;-64
2022/03/15 00:26:01;;;;;;;10.00;7.40;;;-0.50;93.00;-0.90;98237.00;;;;5063045;28;20799;-67
2022/03/15 00:28:51;;;;;;;8.30;7.43;;;-0.60;93.60;-0.80;98240.00;;;;5049493;28;20985;-65
2022/03/15 00:31:41;;;;;;;12.97;7.77;;;-0.60;93.80;-1.00;98236.00;;;;5057170;28;20457;-66
2022/03/15 00:34:30;;;;;;;10.80;8.57;;;-0.60;93.90;-0.50;98235.00;;;;5077151;28;20431;-66
2022/03/15 00:37:19;;;;;;;12.83;9.57;;;-0.60;94.10;-0.40;98239.00;;;;5060946;28;20415;-66
2022/03/15 00:40:09;;;;;;;14.27;9.07;;;-0.60;94.10;-0.30;98243.00;;;;5057533;28;20455;-67
2022/03/15 00:42:58;;;;;;;15.73;8.23;;;-0.60;93.90;-0.50;98231.00;;;;5055756;28;20429;-66
2022/03/15 00:45:48;;;;;;;10.90;8.63;;;-0.60;94.00;-0.60;98225.00;;;;5070623;28;20438;-66
2022/03/15 00:48:37;;;;;;;11.60;7.97;;;-0.60;94.10;-0.50;98220.00;;;;5070035;28;20473;-66
2022/03/15 00:51:27;;;;;;;11.33;9.03;;;-0.60;94.20;-0.70;98210.00;;;;5068879;28;20460;-66
2022/03/15 00:54:16;;;;;;;10.67;8.47;;;-0.60;94.40;-0.90;98202.00;;;;5070761;28;20422;-67
2022/03/15 00:57:05;;;;;;;11.17;7.83;;;-0.70;94.60;-0.90;98207.00;;;;5070734;28;21050;-66
2022/03/15 00:59:55;;;;;;;14.00;8.50;;;-0.70;94.80;-1.00;98212.00;;;;5070188;28;20440;-66
2022/03/15 01:02:45;;;;;;;12.37;9.53;;;-0.70;95.00;-1.00;98218.00;;;;5069026;28;20439;-67
2022/03/15 01:05:33;;;;;;;10.00;8.03;;;-0.80;95.30;-0.70;98206.00;;;;5068430;28;20434;-67
2022/03/15 01:08:22;;;;;;;8.93;7.33;;;-0.80;95.40;-1.10;98198.00;;;;5070377;28;20470;-66
2022/03/15 01:11:11;;;;;;;8.47;6.53;;;-0.80;95.60;-1.20;98194.00;;;;5068453;28;20449;-66
2022/03/15 01:14:00;;;;;;;11.80;7.63;;;-0.90;96.00;-0.80;98194.00;;;;5062475;28;20414;-66
2022/03/15 01:16:49;;;;;;;10.80;8.53;;;-0.90;96.20;-0.60;98198.00;;;;5068724;28;20427;-67
2022/03/15 01:19:39;;;;;;;13.63;8.70;;;-0.80;96.20;-0.30;98200.00;;;;5070031;28;20422;-67
2022/03/15 01:22:28;;;;;;;7.63;6.83;;;-0.70;95.90;-0.50;98203.00;;;;5065403;28;20438;-66
2022/03/15 01:25:17;;;;;;;10.23;8.37;;;-0.60;95.80;-0.30;98187.00;;;;5064999;28;20803;-67
2022/03/15 01:28:06;;;;;;;10.80;7.87;;;-0.60;95.60;-0.40;98192.00;;;;5050365;28;20430;-67
2022/03/15 01:30:55;;;;;;;11.27;9.13;;;-0.50;95.40;-0.60;98195.00;;;;5048951;28;20477;-67
2022/03/15 01:33:43;;;;;;;10.20;7.37;;;-0.60;95.30;-0.80;98179.00;;;;5064038;28;20433;-67
2022/03/15 01:36:34;;;;;;;11.93;9.10;;;-0.60;95.50;-1.20;98185.00;;;;5058488;28;20434;-67
2022/03/15 01:39:24;;;;;;;15.77;8.47;;;-0.80;96.00;-1.50;98167.00;;;;5052416;28;20496;-67
2022/03/15 01:42:12;;;;;;;10.63;8.80;;;-0.90;96.70;-1.30;98182.00;;;;5048327;28;20427;-67
2022/03/15 01:45:05;;;;;;;14.50;9.17;;;-1.00;97.40;-1.00;98187.00;;;;5041984;28;20426;-67
2022/03/15 01:47:53;;;;;;;10.83;8.17;;;-1.00;97.70;-0.80;98179.00;;;;5048953;28;20435;-67
2022/03/15 01:50:42;;;;;;;12.67;7.60;;;-1.00;97.60;-1.30;98173.00;;;;5054861;28;20497;-67
2022/03/15 01:53:34;;;;;;;10.47;7.90;;;-1.00;98.00;-1.00;98180.00;;;;5069037;28;20418;-66
2022/03/15 01:56:24;;;;;;;9.47;7.13;;;-1.00;98.30;-1.20;98189.00;;;;5071705;28;20437;-66
2022/03/15 01:59:17;;;;;;;9.00;6.60;;;-1.00;98.30;-1.40;98176.00;;;;5073473;28;20441;-68
2022/03/15 02:02:07;;;;;;;12.23;7.27;;;-1.00;98.60;-1.00;98172.00;;;;5073682;28;20434;-67
2022/03/15 02:04:56;;;;;;;15.80;9.20;;;-1.00;98.80;-0.50;98175.00;;;;5071994;28;20422;-68
2022/03/15 02:07:44;;;;;;;7.23;6.47;;;-0.90;98.70;-0.80;98165.00;;;;5073826;28;20437;-67
2022/03/15 02:10:35;;;;;;;7.67;5.57;;;-0.80;98.70;-1.00;98173.00;;;;5072898;28;20466;-68
2022/03/15 02:13:24;;;;;;;8.33;5.97;;;-0.80;98.60;-0.90;98169.00;;;;5067137;28;20827;-67
2022/03/15 02:16:12;;;;;;;11.73;7.70;;;-0.80;98.50;-0.60;98164.00;;;;5073823;28;20417;-67
2022/03/15 02:19:03;;;;;;;13.57;8.67;;;-0.70;98.70;-0.40;98176.00;;;;5053231;28;20476;-67
2022/03/15 02:21:53;;;;;;;10.03;6.60;;;-0.70;98.50;-0.70;98165.00;;;;5059817;28;20435;-67
2022/03/15 02:24:43;;;;;;;12.47;8.10;;;-0.70;98.70;-1.10;98164.00;;;;5073518;28;20423;-67
2022/03/15 02:27:31;;;;;;;14.33;8.43;;;-0.70;99.30;-1.00;98172.00;;;;5060085;28;20423;-66
2022/03/15 02:30:22;;;;;;;10.43;8.20;;;-0.80;99.50;-0.90;98152.00;;;;5048066;28;20475;-67
2022/03/15 02:33:10;;;;;;;8.57;7.57;;;-0.70;99.60;-1.00;98152.00;;;;5060425;28;20445;-67
2022/03/15 02:35:59;;;;;;;12.57;9.73;;;-0.80;99.70;-0.70;98158.00;;;;5059867;28;20786;-67
2022/03/15 02:38:49;;;;;;;7.80;6.37;;;-0.80;99.80;-0.60;98162.00;;;;5065427;28;20419;-67
2022/03/15 02:41:38;;;;;;;9.17;5.97;;;-0.70;99.90;-0.50;98168.00;;;;5049364;28;20443;-67
2022/03/15 02:44:27;;;;;;;11.07;9.10;;;-0.60;99.60;-0.40;98161.00;;;;5052651;28;20922;-67
2022/03/15 02:47:16;;;;;;;12.47;7.87;;;-0.50;99.30;-0.30;98164.00;;;;5052883;28;20420;-67
2022/03/15 02:50:06;;;;;;;7.33;6.57;;;-0.40;99.00;-0.20;98161.00;;;;5051987;28;20478;-66
2022/03/15 02:52:55;;;;;;;9.00;7.50;;;-0.30;98.80;-0.10;98161.00;;;;5051568;28;20442;-67
2022/03/15 02:55:46;;;;;;;10.57;8.63;;;-0.30;98.80;-0.50;98152.00;;;;5053639;28;20434;-67
2022/03/15 02:58:35;;;;;;;13.43;8.03;;;-0.30;98.70;-0.80;98152.00;;;;5052895;28;20442;-67
2022/03/15 03:01:24;;;;;;;10.63;7.53;;;-0.40;99.10;-0.90;98162.00;;;;5051699;28;20447;-65
2022/03/15 03:04:14;;;;;;;11.23;8.47;;;-0.50;99.50;-1.10;98156.00;;;;5060829;28;20803;-67
2022/03/15 03:07:06;;;;;;;12.77;8.77;;;-0.60;99.90;-0.70;98156.00;;;;5071392;28;20453;-67
2022/03/15 03:09:55;;;;;;;13.33;8.57;;;-0.60;99.90;-0.70;98148.00;;;;5072389;28;20470;-67
2022/03/15 03:12:45;;;;;;;13.27;8.23;;;-0.60;99.90;-0.70;98153.00;;;;5070957;28;20434;-65
2022/03/15 03:15:34;;;;;;;11.90;8.27;;;-0.60;99.90;-0.40;98160.00;;;;5072419;28;21136;-65
2022/03/15 03:18:23;;;;;;;12.93;8.57;;;-0.50;99.90;-0.40;98156.00;;;;5071788;28;20968;-66
2022/03/15 03:21:12;;;;;;;10.40;8.03;;;-0.50;99.90;-0.40;98158.00;;;;5071766;28;20832;-66
2022/03/15 03:24:03;;;;;;;14.40;8.43;;;-0.40;99.90;-0.40;98150.00;;;;5071749;28;20437;-66
2022/03/15 03:26:52;;;;;;;10.63;8.03;;;-0.40;99.90;-0.20;98141.00;;;;5064009;28;20926;-66
2022/03/15 03:29:42;;;;;;;11.63;6.97;;;-0.30;99.80;-0.10;98156.00;;;;5051813;28;20829;-65
2022/03/15 03:32:31;;;;;;;14.87;7.93;;;-0.20;99.50;-0.20;98147.00;;;;5050791;28;20521;-66
2022/03/15 03:35:20;;;;;;;13.90;9.57;;;-0.20;99.40;-0.30;98138.00;;;;5059384;28;20430;-66
2022/03/15 03:38:09;;;;;;;7.87;5.77;;;-0.10;99.40;-0.70;98135.00;;;;5064467;28;20598;-66
2022/03/15 03:40:58;;;;;;;11.33;8.53;;;-0.20;99.60;-0.50;98130.00;;;;5053965;28;20447;-67
2022/03/15 03:43:47;;;;;;;15.10;7.53;;;-0.30;99.80;-0.60;98130.00;;;;5051738;28;20416;-65
2022/03/15 03:46:37;;;;;;;20.13;8.23;;;-0.40;99.90;-1.00;98123.00;;;;5051884;28;20442;-67
2022/03/15 03:49:26;;;;;;;7.00;5.07;;;-0.50;99.90;-1.10;98121.00;;;;5051410;28;20435;-67
2022/03/15 03:52:15;;;;;;;10.90;7.40;;;-0.50;99.90;-0.80;98128.00;;;;5064394;23;21038;-70
2022/03/15 03:55:04;;;;;;;10.47;7.87;;;-0.60;99.90;-0.60;98126.00;;;;5040999;28;21174;-69
2022/03/15 03:57:53;;;;;;;6.50;5.87;;;-0.60;99.90;-0.60;98130.00;;;;5050319;28;20424;-70
2022/03/15 04:00:42;;;;;;;12.47;9.50;;;-0.50;99.90;-0.60;98122.00;;;;5050621;28;20739;-70
2022/03/15 04:03:33;;;;;;;12.63;7.93;;;-0.50;99.90;-0.50;98122.00;;;;5050450;28;20435;-70
2022/03/15 04:06:21;;;;;;;10.30;6.90;;;-0.50;99.90;-0.40;98118.00;;;;5037180;28;20420;-70
2022/03/15 04:09:11;;;;;;;9.77;8.77;;;-0.40;99.90;-0.50;98127.00;;;;5041136;28;20435;-69
2022/03/15 04:12:00;;;;;;;13.13;8.50;;;-0.40;99.90;-0.30;98123.00;;;;5049916;28;20459;-70
2022/03/15 04:14:49;;;;;;;14.50;9.20;;;-0.40;99.90;-0.30;98125.00;;;;5050319;28;20949;-70
2022/03/15 04:17:38;;;;;;;6.87;4.47;;;-0.30;99.90;-0.30;98119.00;;;;5050242;28;20968;-70
2022/03/15 04:20:28;;;;;;;9.03;7.90;;;-0.30;99.90;-0.20;98111.00;;;;5050535;28;20424;-70
2022/03/15 04:23:17;;;;;;;13.70;8.33;;;-0.20;99.90;-0.20;98112.00;;;;5038216;28;20428;-70
2022/03/15 04:26:06;;;;;;;13.07;9.30;;;-0.20;99.90;-0.10;98124.00;;;;5047770;28;20416;-70
2022/03/15 04:28:56;;;;;;;12.77;8.47;;;0.00;99.90;-0.30;98116.00;;;;5036474;28;20436;-70
2022/03/15 04:31:45;;;;;;;12.23;10.33;;;-0.20;99.90;0.10;98121.00;;;;5027978;28;20472;-70
2022/03/15 04:34:34;;;;;;;9.60;8.10;;;-0.10;99.90;-0.10;98120.00;;;;5050028;28;20428;-70
2022/03/15 04:37:24;;;;;;;8.77;6.00;;;-0.10;99.90;-0.90;98112.00;;;;5050447;28;20785;-70
2022/03/15 04:40:17;;;;;;;8.93;7.70;;;-0.30;99.90;-0.40;98114.00;;;;5036019;28;20519;-70
2022/03/15 04:43:06;;;;;;;13.03;8.70;;;-0.40;99.90;-0.40;98097.00;;;;5038781;28;20439;-69
2022/03/15 04:45:55;;;;;;;10.73;8.57;;;-0.40;99.90;-0.80;98095.00;;;;5049864;28;20428;-70
2022/03/15 04:48:44;;;;;;;11.50;7.97;;;-0.50;99.90;-0.70;98089.00;;;;5049451;28;20502;-70
2022/03/15 04:51:33;;;;;;;18.90;9.63;;;-0.50;99.90;-0.70;98099.00;;;;5048210;28;20475;-70
2022/03/15 04:54:23;;;;;;;19.83;9.80;;;-0.50;99.90;-0.60;98089.00;;;;5050705;28;20426;-70
2022/03/15 04:57:12;;;;;;;15.60;9.03;;;-0.50;99.90;-0.50;98087.00;;;;5049027;28;20431;-70
2022/03/15 05:00:01;;;;;;;7.13;5.97;;;-0.50;99.90;-0.80;98082.00;;;;5049464;28;20430;-69
2022/03/15 05:02:49;;;;;;;12.70;8.80;;;-0.60;99.90;-1.00;98091.00;;;;5039193;28;20914;-70
2022/03/15 05:05:38;;;;;;;4.03;3.43;;;-0.60;99.90;-0.80;98090.00;;;;5053188;28;20433;-70
2022/03/15 05:08:27;;;;;;;13.80;8.43;;;-0.60;99.90;-0.60;98096.00;;;;5039072;28;20428;-70
2022/03/15 05:11:18;;;;;;;11.37;9.10;;;-0.60;99.90;-0.30;98090.00;;;;5042610;28;20489;-69
2022/03/15 05:14:07;;;;;;;13.97;7.80;;;-0.50;99.90;-0.30;98090.00;;;;5049227;28;20423;-70
2022/03/15 05:16:56;;;;;;;10.47;7.80;;;-0.40;99.90;0.00;98092.00;;;;5034146;28;21053;-70
2022/03/15 05:19:45;;;;;;;16.23;7.67;;;-0.20;99.90;0.00;98095.00;;;;5046175;28;20446;-71
2022/03/15 05:22:34;;;;;;;10.20;7.87;;;-0.20;99.90;0.00;98100.00;;;;5040524;28;20447;-70
2022/03/15 05:25:23;;;;;;;14.47;8.90;;;-0.10;99.90;0.10;98100.00;;;;5052860;28;20427;-70
2022/03/15 05:28:14;;;;;;;4.47;3.33;;;-0.10;99.90;-0.40;98097.00;;;;5036127;28;20420;-71
2022/03/15 05:31:03;;;;;;;10.87;8.60;;;-0.20;99.90;-0.60;98083.00;;;;5033961;28;20475;-72
2022/03/15 05:33:52;;;;;;;9.77;7.67;;;-0.20;99.90;-0.60;98076.00;;;;5053741;28;20530;-70
2022/03/15 05:36:40;;;;;;;5.50;3.60;;;-0.30;99.90;-0.50;98079.00;;;;5051978;28;20428;-70
2022/03/15 05:39:29;;;;;;;13.33;8.73;;;-0.30;99.90;-0.50;98086.00;;;;5046878;28;20424;-70
2022/03/15 05:42:18;;;;;;;30.87;22.23;;;0.10;99.90;-0.40;98089.00;;;;5053514;28;20962;-70
2022/03/15 05:45:10;;;;;;;16.33;9.13;;;-0.30;99.90;-0.40;98081.00;;;;5029087;28;20440;-70
2022/03/15 05:47:59;;;;;;;9.20;7.07;;;-0.30;99.90;-0.80;98083.00;;;;5037364;28;20427;-70
2022/03/15 05:50:48;;;;;;;15.07;8.00;;;-0.30;99.90;-0.60;98087.00;;;;5047677;28;20467;-70
2022/03/15 05:53:36;;;;;;;14.20;9.10;;;-0.30;99.90;-0.10;98087.00;;;;5047992;28;20428;-69
2022/03/15 05:56:25;;;;;;;11.47;7.77;;;-0.30;99.90;-0.50;98091.00;;;;5049484;28;20431;-69
2022/03/15 05:59:14;;;;;;;12.40;8.13;;;-0.30;99.90;-0.40;98099.00;;;;5048029;28;20445;-69
2022/03/15 06:02:05;;;;;;;8.27;4.67;;;-0.30;99.90;-0.40;98091.00;;;;5035867;28;20456;-70
2022/03/15 06:04:53;;;;;;;10.50;8.03;;;-0.20;99.90;0.10;98093.00;;;;5040975;28;20448;-69
2022/03/15 06:07:47;;;;;;;13.10;10.07;;;-0.10;99.90;0.10;98099.00;;;;5040647;28;20415;-69
2022/03/15 06:10:36;;;;;;;12.00;8.43;;;-0.10;99.90;0.60;98100.00;;;;5040738;28;20480;-69
2022/03/15 06:13:26;;;;;;;17.57;10.73;;;0.00;99.90;0.60;98093.00;;;;5049308;28;20935;-69
2022/03/15 06:16:15;;;;;;;13.37;9.07;;;0.20;99.90;0.50;98094.00;;;;5051822;28;20792;-70
2022/03/15 06:19:05;;;;;;;15.00;9.53;;;0.30;99.90;0.70;98094.00;;;;5050335;28;20431;-70
2022/03/15 06:21:54;;;;;;;16.77;10.50;;;0.40;99.90;0.90;98094.00;;;;5041214;28;20840;-69
2022/03/15 06:24:43;;;;;;;21.27;12.33;;;0.40;99.90;1.10;98091.00;;;;5043149;28;20420;-70
2022/03/15 06:27:32;;;;;;;15.50;10.40;;;0.60;99.90;1.20;98092.00;;;;5040855;28;20961;-69
2022/03/15 06:30:21;;;;;;;12.03;10.17;;;0.70;99.90;1.50;98089.00;;;;5034481;28;20842;-69
2022/03/15 06:33:10;;;;;;;13.97;10.30;;;0.80;99.90;1.20;98095.00;;;;5046698;28;20451;-69
2022/03/15 06:36:00;;;;;;;12.40;9.33;;;1.00;99.90;0.80;98081.00;;;;5043121;28;20415;-69
2022/03/15 06:38:49;;;;;;;9.60;6.87;;;0.90;99.90;0.40;98097.00;;;;5045270;28;20545;-69
2022/03/15 06:41:39;;;;;;;17.17;11.10;;;0.90;99.90;0.50;98095.00;;;;5029721;28;20451;-70
2022/03/15 06:44:27;;;;;;;16.67;10.83;;;0.70;99.90;0.90;98097.00;;;;5033456;28;20447;-69
2022/03/15 06:47:16;;;;;;;14.17;10.37;;;0.80;99.90;1.00;98108.00;;;;5027252;28;20416;-69
2022/03/15 06:50:08;;;;;;;8.37;6.57;;;0.90;99.90;0.90;98104.00;;;;5032046;28;20424;-70
2022/03/15 06:52:58;;;;;;;18.93;9.90;;;1.00;99.90;1.30;98112.00;;;;5040156;28;20459;-70
2022/03/15 06:55:47;;;;;;;16.47;11.50;;;1.10;99.90;1.60;98099.00;;;;5051691;28;20426;-70
2022/03/15 06:58:36;;;;;;;14.53;9.70;;;1.20;99.90;1.50;98101.00;;;;5051852;28;20431;-71
2022/03/15 07:01:25;;;;;;;6.97;6.27;;;1.30;99.90;1.20;98104.00;;;;5052036;28;20455;-71
2022/03/15 07:04:13;;;;;;;17.80;10.77;;;1.30;99.90;1.70;98110.00;;;;5051568;28;20416;-70
2022/03/15 07:07:02;;;;;;;21.33;12.87;;;1.40;99.90;2.10;98107.00;;;;5052855;28;20423;-70
2022/03/15 07:09:54;;;;;;;15.53;10.13;;;1.60;99.90;2.10;98100.00;;;;5050640;28;20430;-70
2022/03/15 07:12:42;;;;;;;17.63;12.67;;;1.70;99.90;2.20;98110.00;;;;5031985;28;20472;-70
2022/03/15 07:15:31;;;;;;;15.80;9.70;;;1.80;99.90;2.40;98107.00;;;;5031627;28;20420;-70
2022/03/15 07:18:22;;;;;;;16.80;10.63;;;1.90;99.90;2.60;98104.00;;;;5031826;28;20432;-70
2022/03/15 07:21:10;;;;;;;15.90;9.97;;;2.10;99.90;3.00;98110.00;;;;5031108;28;20452;-70
2022/03/15 07:23:59;;;;;;;11.17;9.20;;;2.30;99.90;2.90;98105.00;;;;5049429;28;20429;-70
2022/03/15 07:26:49;;;;;;;14.00;9.07;;;2.40;99.90;2.90;98101.00;;;;5056986;28;20447;-70
2022/03/15 07:29:38;;;;;;;12.93;9.17;;;2.50;99.90;3.20;98096.00;;;;5055882;28;20945;-71
2022/03/15 07:32:27;;;;;;;13.70;10.37;;;2.70;99.90;3.50;98091.00;;;;5050550;28;20482;-71
2022/03/15 07:35:16;;;;;;;10.43;9.20;;;2.80;99.90;3.70;98094.00;;;;5041872;28;20431;-70
2022/03/15 07:38:04;;;;;;;16.00;10.10;;;2.90;99.90;4.00;98098.00;;;;5041862;28;20947;-70
2022/03/15 07:40:54;;;;;;;15.13;9.13;;;3.10;99.90;4.20;98102.00;;;;5042631;28;20441;-70
2022/03/15 07:43:44;;;;;;;17.03;9.83;;;3.30;99.90;4.40;98097.00;;;;5030263;28;20428;-70
2022/03/15 07:46:34;;;;;;;14.50;10.77;;;3.50;99.90;4.60;98099.00;;;;5031429;28;20424;-70
2022/03/15 07:49:23;;;;;;;13.73;10.00;;;3.80;99.80;5.60;98094.00;;;;5030500;28;20443;-70
2022/03/15 07:52:13;;;;;;;15.83;9.93;;;4.00;99.90;5.90;98092.00;;;;5030078;28;20476;-70
2022/03/15 07:55:02;;;;;;;22.03;12.33;;;4.30;99.50;6.20;98094.00;;;;5030862;28;20420;-70
2022/03/15 07:57:50;;;;;;;16.03;11.27;;;4.70;98.00;6.60;98091.00;;;;5046415;28;20436;-70
2022/03/15 08:00:40;;;;;;;17.47;11.50;;;5.10;96.80;6.90;98079.00;;;;5040519;28;20441;-70
2022/03/15 08:03:29;;;;;;;22.03;11.00;;;5.40;95.70;7.30;98079.00;;;;5032098;28;20440;-70
2022/03/15 08:06:18;;;;;;;30.40;12.20;;;5.70;94.30;7.70;98084.00;;;;5031790;28;20201;-70
2022/03/15 08:09:08;;;;;;;21.03;10.80;;;6.00;93.60;7.70;98078.00;;;;5040719;28;20254;-71
2022/03/15 08:11:57;;;;;;;14.23;10.23;;;6.30;92.20;7.70;98077.00;;;;5032103;28;20229;-70
2022/03/15 08:14:47;;;;;;;17.70;10.17;;;6.60;90.90;8.00;98075.00;;;;5031363;28;20209;-71
2022/03/15 08:17:38;;;;;;;14.40;10.60;;;6.70;90.30;7.80;98070.00;;;;5031686;28;20220;-70
2022/03/15 08:20:32;;;;;;;23.90;11.87;;;6.80;88.30;7.90;98071.00;;;;5040421;28;20575;-71
2022/03/15 08:23:21;;;;;;;15.13;10.40;;;6.90;87.50;8.10;98069.00;;;;5050191;28;20220;-70
2022/03/15 08:26:10;;;;;;;20.17;11.33;;;7.10;86.30;8.20;98061.00;;;;5047548;28;20212;-70
2022/03/15 08:28:59;;;;;;;15.10;10.80;;;7.10;86.20;8.30;98052.00;;;;5031886;28;20198;-70
2022/03/15 08:31:47;;;;;;;20.13;11.47;;;7.20;83.80;8.60;98059.00;;;;5039305;28;20232;-70
2022/03/15 08:34:38;;;;;;;20.73;11.07;;;7.40;82.80;8.80;98058.00;;;;5054761;28;20208;-71
2022/03/15 08:37:29;;;;;;;19.07;10.87;;;7.50;82.90;8.80;98047.00;;;;5048817;28;20204;-71
2022/03/15 08:40:18;;;;;;;17.50;9.63;;;7.60;81.60;8.90;98037.00;;;;5030735;28;20216;-70
2022/03/15 08:43:07;;;;;;;15.00;10.70;;;7.70;80.70;9.20;98036.00;;;;5051420;28;20227;-71
2022/03/15 08:45:56;;;;;;;16.57;10.63;;;7.90;80.10;9.00;98040.00;;;;5045569;28;20205;-70
2022/03/15 08:48:45;;;;;;;20.13;10.53;;;8.00;77.80;9.30;98043.00;;;;5038270;28;20219;-71
2022/03/15 08:51:35;;;;;;;14.53;10.47;;;8.10;77.50;9.60;98035.00;;;;5041489;28;20221;-71
2022/03/15 08:54:25;;;;;;;15.10;9.77;;;8.20;77.00;9.80;98037.00;;;;5031247;28;20209;-71
2022/03/15 08:57:15;;;;;;;14.67;9.80;;;8.40;76.50;9.70;98040.00;;;;5033243;28;20196;-71
2022/03/15 09:00:06;;;;;;;16.53;9.30;;;8.50;75.50;9.90;98030.00;;;;5041855;28;20208;-71
2022/03/15 09:02:54;;;;;;;14.97;10.47;;;8.60;74.70;9.90;98042.00;;;;5031622;28;20255;-71
2022/03/15 09:05:44;;;;;;;14.73;11.83;;;8.70;73.90;10.20;98031.00;;;;5049901;28;20267;-72
2022/03/15 09:08:37;;;;;;;14.53;10.37;;;8.80;73.60;10.30;98025.00;;;;5040946;28;20200;-71
2022/03/15 09:11:25;;;;;;;17.13;10.77;;;9.00;73.10;10.50;98034.00;;;;5036950;28;20711;-70
2022/03/15 09:14:14;;;;;;;13.53;9.37;;;9.10;72.30;10.70;98024.00;;;;5031468;28;20198;-70
2022/03/15 09:17:04;;;;;;;12.43;8.90;;;9.30;71.60;10.90;98015.00;;;;5057051;28;20200;-70
2022/03/15 09:19:53;;;;;;;16.57;9.37;;;9.50;71.40;10.80;98003.00;;;;5049477;28;20622;-70
2022/03/15 09:22:41;;;;;;;16.03;10.03;;;9.60;69.60;11.60;98005.00;;;;5049681;28;20228;-70
2022/03/15 09:25:32;;;;;;;18.47;11.13;;;9.80;69.60;11.50;97999.00;;;;5046801;28;20201;-70
2022/03/15 09:28:21;;;;;;;16.40;10.53;;;10.10;68.90;11.60;97992.00;;;;5030575;28;20615;-70
2022/03/15 09:31:09;;;;;;;13.87;10.07;;;10.20;67.40;11.90;97995.00;;;;5029002;28;20716;-70
2022/03/15 09:33:58;;;;;;;13.30;9.33;;;10.40;67.40;11.90;98000.00;;;;5046524;28;20201;-70
2022/03/15 09:36:47;;;;;;;15.40;9.63;;;10.50;66.90;12.30;97990.00;;;;5040969;28;20200;-70
2022/03/15 09:39:36;;;;;;;10.63;8.10;;;10.70;66.20;12.50;97989.00;;;;5032550;28;20220;-70
2022/03/15 09:42:30;;;;;;;12.87;9.53;;;10.90;65.70;12.30;97987.00;;;;5028672;28;20221;-70
2022/03/15 09:45:23;;;;;;;15.07;9.33;;;11.10;64.40;12.70;97977.00;;;;5030174;28;20201;-70
2022/03/15 09:48:20;;;;;;;10.27;8.33;;;11.30;62.80;13.20;97971.00;;;;5029769;28;20664;-70
2022/03/15 09:51:14;;;;;;;10.73;8.33;;;11.50;63.10;12.70;97970.00;;;;5045983;23;20225;-83
2022/03/15 09:54:05;;;;;;;12.93;9.57;;;11.60;62.10;13.50;97960.00;;;;5069746;28;21030;-83
2022/03/15 09:56:56;;;;;;;13.47;8.57;;;11.80;60.40;13.90;97967.00;;;;5071174;28;20219;-83
2022/03/15 09:59:46;;;;;;;9.70;8.00;;;12.00;60.70;14.10;97951.00;;;;5053221;28;20202;-83
2022/03/15 10:02:35;;;;;;;10.50;8.60;;;12.20;59.70;14.60;97955.00;;;;5031245;28;20577;-83
2022/03/15 10:05:24;;;;;;;14.40;8.57;;;12.50;59.70;14.80;97944.00;;;;5083057;23;20702;-69
2022/03/15 10:08:15;;;;;;;13.63;8.43;;;12.70;59.50;14.90;97944.00;;;;5065173;28;20678;-69
2022/03/15 10:11:05;;;;;;;10.57;8.40;;;13.00;59.00;15.00;97928.00;;;;5060835;28;20218;-69
2022/03/15 10:13:54;;;;;;;12.97;9.70;;;13.20;58.40;14.90;97911.00;;;;5029006;28;20209;-69
2022/03/15 10:16:44;;;;;;;19.67;8.83;;;13.40;56.90;15.10;97907.00;;;;5031136;28;20216;-69
2022/03/15 10:19:33;;;;;;;11.97;9.07;;;13.50;56.60;15.20;97897.00;;;;5032980;28;20201;-69
2022/03/15 10:22:24;;;;;;;12.60;9.00;;;13.60;56.40;15.30;97888.00;;;;5033231;28;20362;-69
2022/03/15 10:25:16;;;;;;;14.30;9.40;;;13.70;55.90;15.70;97890.00;;;;5040971;28;20205;-69
2022/03/15 10:28:08;;;;;;;10.63;8.53;;;13.80;55.50;16.10;97891.00;;;;5033504;28;20209;-69
2022/03/15 10:31:00;;;;;;;15.70;9.80;;;14.00;55.50;16.20;97896.00;;;;5039998;28;20208;-69
2022/03/15 10:33:51;;;;;;;13.53;9.43;;;14.20;55.30;16.50;97879.00;;;;5049167;28;20201;-69
2022/03/15 10:36:42;;;;;;;15.43;9.73;;;14.40;54.90;16.90;97879.00;;;;5043638;28;20201;-69
2022/03/15 10:39:31;;;;;;;12.13;9.13;;;14.70;54.70;16.90;97877.00;;;;5032065;28;20209;-69
2022/03/15 10:42:24;;;;;;;11.43;7.97;;;14.90;53.40;17.10;97861.00;;;;5045973;28;20436;-68
2022/03/15 10:45:22;;;;;;;12.60;9.23;;;15.10;52.80;17.10;97874.00;;;;5059342;28;20670;-69
2022/03/15 10:48:17;;;;;;;14.90;9.60;;;15.30;52.60;17.00;97860.00;;;;5044674;28;20200;-69
2022/03/15 10:51:13;;;;;;;14.90;10.23;;;15.40;52.50;17.30;97857.00;;;;5047879;28;20216;-69
2022/03/15 10:54:05;;;;;;;12.40;10.20;;;15.50;52.10;17.30;97853.00;;;;5055500;28;20203;-69
2022/03/15 10:56:57;;;;;;;15.60;11.13;;;15.60;51.70;17.60;97835.00;;;;5044296;28;20213;-70
2022/03/15 10:59:46;;;;;;;13.53;11.77;;;15.80;51.10;17.70;97846.00;;;;5062162;28;20220;-69
2022/03/15 11:02:34;;;;;;;17.47;10.33;;;15.90;50.70;17.10;97840.00;;;;5043744;28;20221;-69
2022/03/15 11:05:32;;;;;;;14.13;9.07;;;15.90;50.00;16.90;97836.00;;;;5048765;28;20208;-69
2022/03/15 11:08:23;;;;;;;11.83;9.93;;;15.80;49.90;16.20;97820.00;;;;5040404;28;20199;-69
2022/03/15 11:11:27;;;;;;;10.17;8.83;;;15.70;49.20;16.20;97810.00;;;;5043945;28;20215;-69
2022/03/15 11:14:28;;;;;;;13.23;9.93;;;15.60;49.40;17.10;97811.00;;;;5056893;28;20201;-70
2022/03/15 11:17:19;;;;;;;14.30;9.90;;;15.60;49.70;17.40;97807.00;;;;5031962;28;20215;-70
2022/03/15 11:20:09;;;;;;;13.83;11.67;;;15.70;49.80;17.90;97805.00;;;;5032992;28;20216;-70
2022/03/15 11:23:01;;;;;;;14.03;10.40;;;15.80;50.00;17.80;97797.00;;;;5037252;28;20220;-70
2022/03/15 11:25:59;;;;;;;16.73;11.10;;;16.10;49.30;17.30;97793.00;;;;5055775;28;20213;-69
2022/03/15 11:28:49;;;;;;;17.57;10.77;;;16.10;49.30;16.90;97785.00;;;;5044417;28;20212;-69
2022/03/15 11:31:40;;;;;;;15.70;10.77;;;15.90;48.50;17.30;97800.00;;;;5027608;28;20227;-69
2022/03/15 11:34:30;;;;;;;18.43;11.10;;;15.90;48.90;17.20;97801.00;;;;5048882;28;20246;-69
2022/03/15 11:37:19;;;;;;;13.90;10.13;;;15.80;49.10;17.20;97790.00;;;;5032498;28;20206;-69
2022/03/15 11:40:12;;;;;;;13.27;11.03;;;15.80;49.30;16.90;97777.00;;;;5032307;28;20197;-69
2022/03/15 11:43:15;;;;;;;15.80;10.33;;;15.80;48.90;16.80;97771.00;;;;5031198;28;20692;-70
2022/03/15 11:46:13;;;;;;;17.07;12.30;;;15.70;49.10;16.30;97769.00;;;;5044451;28;20208;-69
2022/03/15 11:49:18;;;;;;;18.03;11.27;;;15.50;48.70;16.00;97758.00;;;;5050750;28;20212;-69
2022/03/15 11:52:37;;;;;;;16.40;11.67;;;15.30;49.00;16.00;97757.00;;;;5049703;28;20273;-69
2022/03/15 11:55:32;;;;;;;16.07;11.50;;;15.10;49.10;15.40;97753.00;;;;5059639;28;20204;-69
2022/03/15 11:58:29;;;;;;;14.83;11.30;;;14.80;48.90;15.40;97749.00;;;;5047212;28;20205;-70
2022/03/15 12:01:17;;;;;;;16.77;12.40;;;14.60;49.50;15.20;97742.00;;;;5046294;28;20228;-70
2022/03/15 12:04:07;;;;;;;17.90;12.20;;;14.40;49.90;15.20;97730.00;;;;5045955;28;20224;-69
2022/03/15 12:06:59;;;;;;;16.00;11.33;;;14.20;50.10;15.10;97736.00;;;;5062656;28;20208;-69
2022/03/15 12:09:48;;;;;;;18.30;14.13;;;14.10;50.40;15.20;97748.00;;;;5031150;28;20210;-69
2022/03/15 12:12:40;;;;;;;22.77;13.13;;;14.00;50.90;14.90;97748.00;;;;5030515;28;20233;-68
2022/03/15 12:15:38;;;;;;;19.07;13.20;;;13.90;51.10;14.90;97736.00;;;;5031686;28;20204;-69
2022/03/15 12:18:45;;;;;;;19.30;12.60;;;13.80;51.20;14.90;97734.00;;;;5030844;28;20197;-69
2022/03/15 12:21:47;;;;;;;15.57;12.50;;;13.70;51.50;14.70;97724.00;;;;5029474;28;20217;-69
2022/03/15 12:24:40;;;;;;;17.43;12.47;;;13.60;51.50;14.70;97727.00;;;;5028620;28;20601;-69
2022/03/15 12:27:31;;;;;;;16.17;11.37;;;13.60;51.70;14.70;97724.00;;;;5032953;28;20209;-69
2022/03/15 12:30:28;;;;;;;20.97;12.57;;;13.50;51.60;14.70;97720.00;;;;5030882;28;20567;-69